Terminal Aerodrome Forecast
Issued by NWS Billings, MT

Home | Current Version | Previous Version | Text Only | Print | Product List | Glossary Off
Versions: 1 2 3 4 5 6 7 8 9 10 11 12 13 14 15 16 17 18 19 20 21 22 23 24 25 26 27 28 29 30 31 32 33 34 35 36 37 38

977
FTUS45 KBYZ 250529
TAFMLS
TAF
KMLS 250529Z 2506/2606 VRB05KT P6SM SKC
     FM250800 14004KT 6SM BR SCT003
     FM251500 15004KT P6SM SCT050=

USA.gov is the U.S. government's official web portal to all federal, state and local government web resources and services.